createdAt,value
2023-03-04T00:02:16.680Z,19.60
2023-03-04T00:04:43.312Z,19.50
2023-03-04T00:07:10.127Z,19.50
2023-03-04T00:09:36.782Z,19.50
2023-03-04T00:12:03.594Z,19.50
2023-03-04T00:14:30.642Z,19.50
2023-03-04T00:16:57.302Z,19.50
2023-03-04T00:19:23.989Z,19.50
2023-03-04T00:21:50.659Z,19.50
2023-03-04T00:24:17.301Z,19.50
2023-03-04T00:26:43.942Z,19.50
2023-03-04T00:29:10.596Z,19.50
2023-03-04T00:31:37.334Z,19.50
2023-03-04T00:34:04.045Z,19.50
2023-03-04T00:36:30.755Z,19.40
2023-03-04T00:38:57.371Z,19.40
2023-03-04T00:41:23.993Z,19.40
2023-03-04T00:43:50.839Z,19.40
2023-03-04T00:46:17.557Z,19.40
2023-03-04T00:48:44.190Z,19.40
2023-03-04T00:51:10.770Z,19.40
2023-03-04T00:53:37.371Z,19.40
2023-03-04T00:56:04.138Z,19.40
2023-03-04T00:58:31.031Z,19.40
2023-03-04T01:00:57.649Z,19.30
2023-03-04T01:03:26.730Z,19.30
2023-03-04T01:05:53.339Z,19.40
2023-03-04T01:08:19.939Z,19.40
2023-03-04T01:10:48.413Z,19.40
2023-03-04T01:13:15.050Z,19.40
2023-03-04T01:15:41.718Z,19.40
2023-03-04T01:18:08.576Z,19.40
2023-03-04T01:20:35.277Z,19.30
2023-03-04T01:23:01.922Z,19.30
2023-03-04T01:25:28.521Z,19.30
2023-03-04T01:27:55.242Z,19.30
2023-03-04T01:30:21.928Z,19.30
2023-03-04T01:32:48.544Z,19.30
2023-03-04T01:35:15.283Z,19.30
2023-03-04T01:37:41.917Z,19.30
2023-03-04T01:40:09.742Z,19.30
2023-03-04T01:42:36.760Z,19.70
2023-03-04T01:45:05.037Z,19.30
2023-03-04T01:47:34.454Z,19.20
2023-03-04T01:50:04.042Z,19.30
2023-03-04T01:52:30.828Z,19.20
2023-03-04T01:54:57.752Z,19.30
2023-03-04T01:57:26.326Z,19.20
2023-03-04T02:00:19.781Z,19.20
2023-03-04T02:02:49.966Z,19.20
2023-03-04T02:05:17.350Z,19.20
2023-03-04T02:07:44.008Z,19.20
2023-03-04T02:10:11.216Z,19.20
2023-03-04T02:12:38.125Z,19.20
2023-03-04T02:15:05.936Z,19.20
2023-03-04T02:17:32.905Z,19.20
2023-03-04T02:20:38.409Z,19.20
2023-03-04T02:23:31.000Z,19.20
2023-03-04T02:26:19.183Z,19.20
2023-03-04T02:28:47.665Z,19.20
2023-03-04T02:31:35.414Z,19.20
2023-03-04T02:34:15.036Z,19.10
2023-03-04T02:36:43.134Z,19.20
2023-03-04T02:39:25.261Z,19.10
2023-03-04T02:41:53.914Z,19.10
2023-03-04T02:44:23.571Z,19.10
2023-03-04T02:46:51.424Z,19.10
2023-03-04T02:49:19.014Z,19.10
2023-03-04T02:51:46.346Z,19.10
2023-03-04T02:54:21.415Z,19.10
2023-03-04T02:56:49.871Z,19.10
2023-03-04T02:59:17.012Z,19.10
2023-03-04T03:01:43.752Z,19.10
2023-03-04T03:04:10.380Z,19.10
2023-03-04T03:06:37.175Z,19.10
2023-03-04T03:09:03.981Z,19.10
2023-03-04T03:11:31.042Z,19.10
2023-03-04T03:13:57.974Z,19.00
2023-03-04T03:16:24.738Z,19.00
2023-03-04T03:18:51.689Z,19.00
2023-03-04T03:21:18.751Z,19.00
2023-03-04T03:23:45.380Z,19.00
2023-03-04T03:26:12.008Z,19.00
2023-03-04T03:28:38.814Z,19.00
2023-03-04T03:31:05.817Z,19.00
2023-03-04T03:33:32.786Z,19.00
2023-03-04T03:36:00.237Z,19.00
2023-03-04T03:38:27.768Z,19.00
2023-03-04T03:40:54.442Z,19.00
2023-03-04T03:43:21.111Z,19.00
2023-03-04T03:45:47.826Z,19.00
2023-03-04T03:48:14.537Z,19.00
2023-03-04T03:50:41.137Z,19.00
2023-03-04T03:53:07.709Z,19.00
2023-03-04T03:55:34.365Z,19.00
2023-03-04T03:58:00.955Z,18.90
2023-03-04T04:00:27.614Z,18.90
2023-03-04T04:02:56.888Z,18.90
2023-03-04T04:05:23.579Z,18.90
2023-03-04T04:07:51.393Z,18.90
2023-03-04T04:10:19.166Z,18.90
2023-03-04T04:12:45.780Z,18.90
2023-03-04T04:15:12.942Z,18.90
2023-03-04T04:17:39.943Z,18.90
2023-03-04T04:20:08.153Z,18.90
2023-03-04T04:22:34.823Z,18.90
2023-03-04T04:25:01.619Z,18.90
2023-03-04T04:27:28.333Z,18.90
2023-03-04T04:29:54.981Z,18.90
2023-03-04T04:32:21.700Z,18.90
2023-03-04T04:34:48.340Z,18.90
2023-03-04T04:37:14.977Z,18.90
2023-03-04T04:39:41.610Z,18.80
2023-03-04T04:42:10.822Z,18.80
2023-03-04T04:44:38.807Z,18.80
2023-03-04T04:47:07.128Z,18.80
2023-03-04T04:49:33.845Z,18.80
2023-03-04T04:52:00.498Z,18.80
2023-03-04T04:54:27.123Z,18.80
2023-03-04T04:56:54.126Z,18.80
2023-03-04T04:59:21.224Z,18.80
2023-03-04T05:01:48.107Z,18.80
2023-03-04T05:04:14.750Z,18.80
2023-03-04T05:06:41.475Z,18.80
2023-03-04T05:09:08.281Z,18.80
2023-03-04T05:11:34.915Z,18.80
2023-03-04T05:14:01.778Z,18.80
2023-03-04T05:16:28.388Z,18.70
2023-03-04T05:18:55.022Z,18.80
2023-03-04T05:21:21.667Z,18.80
2023-03-04T05:23:48.318Z,18.80
2023-03-04T05:26:17.620Z,18.70
2023-03-04T05:28:45.014Z,18.70
2023-03-04T05:31:12.118Z,18.70
2023-03-04T05:33:39.309Z,18.80
2023-03-04T05:36:07.059Z,18.70
2023-03-04T05:38:33.933Z,18.70
2023-03-04T05:41:03.690Z,18.70
2023-03-04T05:43:31.575Z,18.70
2023-03-04T05:45:58.306Z,18.70
2023-03-04T05:48:24.936Z,18.70
2023-03-04T05:50:59.958Z,18.70
2023-03-04T05:53:26.611Z,18.70
2023-03-04T05:55:53.274Z,18.70
2023-03-04T05:58:20.466Z,18.70
2023-03-04T06:00:47.318Z,18.70
2023-03-04T06:03:19.021Z,18.70
2023-03-04T06:05:45.618Z,16.90
2023-03-04T06:08:12.989Z,14.20
2023-03-04T06:10:41.030Z,13.10
2023-03-04T06:13:08.471Z,12.30
2023-03-04T06:15:35.446Z,12.20
2023-03-04T06:18:02.141Z,13.60
2023-03-04T06:20:28.804Z,15.00
2023-03-04T06:22:55.500Z,16.00
2023-03-04T06:25:22.416Z,16.70
2023-03-04T06:27:50.717Z,17.20
2023-03-04T06:30:18.374Z,17.50
2023-03-04T06:32:46.048Z,17.70
2023-03-04T06:35:13.370Z,17.80
2023-03-04T06:37:40.101Z,17.90
2023-03-04T06:40:07.750Z,18.00
2023-03-04T06:42:35.551Z,18.10
2023-03-04T06:45:03.290Z,18.20
2023-03-04T06:47:30.412Z,18.30
2023-03-04T06:49:57.062Z,18.30
2023-03-04T06:52:24.320Z,18.40
2023-03-04T06:54:51.180Z,18.40
2023-03-04T06:57:18.066Z,18.50
2023-03-04T06:59:44.654Z,18.50
2023-03-04T07:02:14.189Z,18.50
2023-03-04T07:04:40.889Z,19.20
2023-03-04T07:07:07.611Z,18.60
2023-03-04T07:09:34.287Z,18.70
2023-03-04T07:12:00.915Z,18.70
2023-03-04T07:14:27.935Z,18.70
2023-03-04T07:16:55.012Z,18.70
2023-03-04T07:19:21.868Z,18.80
2023-03-04T07:21:48.510Z,18.80
2023-03-04T07:24:15.788Z,18.80
2023-03-04T07:26:42.497Z,18.80
2023-03-04T07:29:09.143Z,18.90
2023-03-04T07:31:36.812Z,18.90
2023-03-04T07:34:06.265Z,18.80
2023-03-04T07:36:35.282Z,18.90
2023-03-04T07:39:03.526Z,18.90
2023-03-04T07:41:30.864Z,18.90
2023-03-04T07:43:58.476Z,19.00
2023-03-04T07:46:25.643Z,19.00
2023-03-04T07:48:52.752Z,19.00
2023-03-04T07:51:21.086Z,19.00
2023-03-04T07:53:51.767Z,19.10
2023-03-04T07:56:21.159Z,19.10
2023-03-04T07:58:48.450Z,19.10
2023-03-04T08:01:17.931Z,19.10
2023-03-04T08:03:45.016Z,19.10
2023-03-04T08:06:15.817Z,19.20
2023-03-04T08:08:45.886Z,19.20
2023-03-04T08:11:18.810Z,19.20
2023-03-04T08:13:45.532Z,19.20
2023-03-04T08:16:19.188Z,19.20
2023-03-04T08:18:48.801Z,19.30
2023-03-04T08:21:19.194Z,19.30
2023-03-04T08:23:46.505Z,19.30
2023-03-04T08:26:18.487Z,19.30
2023-03-04T08:28:45.783Z,19.30
2023-03-04T08:31:16.896Z,19.40
2023-03-04T08:33:43.836Z,19.40
2023-03-04T08:36:11.044Z,19.40
2023-03-04T08:38:38.179Z,19.40
2023-03-04T08:41:05.126Z,19.50
2023-03-04T08:43:33.283Z,19.40
2023-03-04T08:45:59.991Z,19.50
2023-03-04T08:48:27.182Z,19.50
2023-03-04T08:50:53.989Z,19.60
2023-03-04T08:53:21.038Z,19.60
2023-03-04T08:55:48.888Z,19.70
2023-03-04T08:58:15.486Z,19.70
2023-03-04T09:00:48.097Z,19.80
2023-03-04T09:03:16.109Z,19.80
2023-03-04T09:05:44.485Z,19.80
2023-03-04T09:08:11.163Z,19.80
2023-03-04T09:10:37.808Z,19.80
2023-03-04T09:13:04.561Z,19.80
2023-03-04T09:15:31.309Z,19.80
2023-03-04T09:17:57.933Z,19.80
2023-03-04T09:20:24.680Z,19.80
2023-03-04T09:22:51.344Z,19.90
2023-03-04T09:25:17.966Z,19.80
2023-03-04T09:27:44.650Z,19.90
2023-03-04T09:30:12.242Z,20.00
2023-03-04T09:32:39.234Z,19.90
2023-03-04T09:35:06.414Z,19.90
2023-03-04T09:37:33.859Z,19.90
2023-03-04T09:40:00.469Z,19.90
2023-03-04T09:42:42.776Z,20.00
2023-03-04T09:45:17.155Z,20.00
2023-03-04T09:47:46.055Z,20.00
2023-03-04T09:50:13.378Z,20.10
2023-03-04T09:53:14.294Z,20.10
2023-03-04T09:55:43.698Z,20.10
2023-03-04T09:58:47.925Z,20.20
2023-03-04T10:01:33.478Z,20.10
2023-03-04T10:04:12.242Z,20.20
2023-03-04T10:06:40.717Z,20.20
2023-03-04T10:09:19.297Z,20.20
2023-03-04T10:12:11.360Z,20.30
2023-03-04T10:14:44.951Z,20.30
2023-03-04T10:17:21.803Z,20.30
2023-03-04T10:20:07.766Z,20.40
2023-03-04T10:22:44.518Z,20.30
2023-03-04T10:25:25.218Z,20.40
2023-03-04T10:27:54.938Z,20.40
2023-03-04T10:30:44.593Z,20.40
2023-03-04T10:33:19.363Z,20.50
2023-03-04T10:36:03.083Z,20.40
2023-03-04T10:38:36.110Z,20.40
2023-03-04T10:41:17.491Z,20.50
2023-03-04T10:44:01.184Z,20.50
2023-03-04T10:46:28.242Z,20.50
2023-03-04T10:48:55.465Z,20.50
2023-03-04T10:51:28.003Z,20.60
2023-03-04T10:54:26.347Z,20.60
2023-03-04T10:56:59.067Z,20.60
2023-03-04T10:59:46.139Z,20.60
2023-03-04T11:02:31.307Z,20.60
2023-03-04T11:05:18.792Z,20.60
2023-03-04T11:07:57.931Z,20.70
2023-03-04T11:10:31.163Z,20.70
2023-03-04T11:13:07.368Z,20.70
2023-03-04T11:15:53.474Z,20.70
2023-03-04T11:18:38.784Z,20.70
2023-03-04T11:21:07.666Z,20.70
2023-03-04T11:23:43.197Z,20.70
2023-03-04T11:26:16.229Z,20.70
2023-03-04T11:28:52.356Z,20.80
2023-03-04T11:31:26.267Z,20.70
2023-03-04T11:34:13.772Z,20.70
2023-03-04T11:37:03.457Z,20.80
2023-03-04T11:39:37.330Z,20.80
2023-03-04T11:42:25.569Z,20.80
2023-03-04T11:44:52.683Z,20.80
2023-03-04T11:47:48.456Z,20.80
2023-03-04T11:50:19.831Z,20.80
2023-03-04T11:53:10.245Z,20.80
2023-03-04T11:55:45.647Z,20.80
2023-03-04T11:58:39.355Z,20.80
2023-03-04T12:01:15.162Z,20.80
2023-03-04T12:04:16.683Z,20.90
2023-03-04T12:06:56.008Z,20.80
2023-03-04T12:09:52.016Z,20.90
2023-03-04T12:12:59.816Z,20.80
2023-03-04T12:15:51.560Z,20.80
2023-03-04T12:18:43.137Z,20.70
2023-03-04T12:21:54.532Z,20.60
2023-03-04T12:24:39.336Z,20.60
2023-03-04T12:27:31.199Z,20.50
2023-03-04T12:30:06.874Z,20.50
2023-03-04T12:32:49.436Z,20.40
2023-03-04T12:35:40.913Z,20.50
2023-03-04T12:38:33.357Z,20.40
2023-03-04T12:41:02.737Z,20.40
2023-03-04T12:43:53.635Z,20.40
2023-03-04T12:46:41.064Z,20.40
2023-03-04T12:49:44.372Z,20.40
2023-03-04T12:52:18.137Z,20.40
2023-03-04T12:54:51.482Z,20.40
2023-03-04T12:57:23.208Z,20.40
2023-03-04T13:00:29.742Z,20.40
2023-03-04T13:03:24.051Z,20.50
2023-03-04T13:06:15.745Z,20.70
2023-03-04T13:08:53.741Z,20.70
2023-03-04T13:11:26.354Z,20.70
2023-03-04T13:14:27.152Z,20.70
2023-03-04T13:23:14.975Z,20.80
2023-03-04T13:25:45.307Z,20.70
2023-03-04T13:28:30.882Z,20.60
2023-03-04T13:30:59.448Z,20.70
2023-03-04T13:33:26.160Z,20.80
2023-03-04T13:36:26.239Z,20.70
2023-03-04T13:39:24.460Z,20.80
2023-03-04T13:41:53.642Z,20.80
2023-03-04T13:44:35.713Z,20.80
2023-03-04T13:47:14.938Z,20.80
2023-03-04T13:49:41.793Z,20.70
2023-03-04T13:52:38.360Z,20.80
2023-03-04T13:55:40.173Z,20.80
2023-03-04T13:58:25.945Z,20.90
2023-03-04T14:00:55.053Z,20.90
2023-03-04T14:03:27.552Z,20.90
2023-03-04T14:06:18.144Z,20.80
2023-03-04T14:08:46.301Z,20.90
2023-03-04T14:11:24.700Z,20.80
2023-03-04T14:13:52.207Z,20.60
2023-03-04T14:16:23.559Z,20.50
2023-03-04T14:19:06.533Z,20.50
2023-03-04T14:21:34.808Z,20.50
2023-03-04T14:24:14.814Z,20.40
2023-03-04T14:26:41.523Z,20.40
2023-03-04T14:29:27.357Z,20.40
2023-03-04T14:31:54.583Z,20.40
2023-03-04T14:34:49.543Z,20.40
2023-03-04T14:37:22.578Z,20.30
2023-03-04T14:39:57.282Z,20.30
2023-03-04T14:42:30.016Z,20.40
2023-03-04T14:44:59.763Z,20.30
2023-03-04T14:47:38.013Z,20.30
2023-03-04T14:50:17.500Z,20.30
2023-03-04T14:53:04.121Z,20.30
2023-03-04T14:55:30.795Z,20.30
2023-03-04T14:58:22.048Z,20.30
2023-03-04T15:00:49.244Z,20.30
2023-03-04T15:03:28.922Z,20.20
2023-03-04T15:05:58.264Z,20.30
2023-03-04T15:08:37.519Z,20.20
2023-03-04T15:11:06.317Z,20.20
2023-03-04T15:13:51.316Z,20.20
2023-03-04T15:16:23.165Z,20.20
2023-03-04T15:19:03.398Z,20.20
2023-03-04T15:21:41.524Z,20.20
2023-03-04T15:24:11.054Z,20.20
2023-03-04T15:26:40.277Z,20.20
2023-03-04T15:29:18.791Z,20.20
2023-03-04T15:31:49.751Z,20.20
2023-03-04T15:34:19.583Z,20.20
2023-03-04T15:36:49.691Z,20.20
2023-03-04T15:39:17.837Z,20.10
2023-03-04T15:41:46.466Z,20.20
2023-03-04T15:44:13.387Z,20.20
2023-03-04T15:46:40.050Z,20.20
2023-03-04T15:49:06.710Z,20.30
2023-03-04T15:51:33.361Z,20.20
2023-03-04T15:54:01.168Z,20.20
2023-03-04T15:56:30.670Z,20.20
2023-03-04T15:59:17.969Z,20.10
2023-03-04T16:01:44.963Z,20.10
2023-03-04T16:04:16.674Z,20.10
2023-03-04T16:06:48.448Z,20.10
2023-03-04T16:09:17.715Z,20.20
2023-03-04T16:11:47.344Z,20.20
2023-03-04T16:14:17.692Z,20.10
2023-03-04T16:16:46.403Z,20.00
2023-03-04T16:19:13.021Z,20.00
2023-03-04T16:21:40.581Z,20.00
2023-03-04T16:24:18.703Z,20.00
2023-03-04T16:26:45.365Z,20.00
2023-03-04T16:29:11.979Z,20.00
2023-03-04T16:31:38.612Z,19.90
2023-03-04T16:34:05.198Z,19.90
2023-03-04T16:36:32.183Z,19.90
2023-03-04T16:39:03.630Z,19.90
2023-03-04T16:41:30.623Z,19.90
2023-03-04T16:44:00.067Z,19.80
2023-03-04T16:46:26.807Z,19.90
2023-03-04T16:48:53.713Z,19.90
2023-03-04T16:51:22.873Z,20.00
2023-03-04T16:53:54.687Z,20.10
2023-03-04T16:56:21.705Z,20.20
2023-03-04T16:58:48.827Z,20.30
2023-03-04T17:01:24.224Z,20.30
2023-03-04T17:03:50.978Z,20.40
2023-03-04T17:06:18.188Z,20.40
2023-03-04T17:08:45.329Z,20.40
2023-03-04T17:11:16.092Z,20.40
2023-03-04T17:13:42.833Z,20.40
2023-03-04T17:16:11.059Z,20.40
2023-03-04T17:18:38.805Z,20.40
2023-03-04T17:21:08.054Z,20.40
2023-03-04T17:23:35.096Z,20.40
2023-03-04T17:26:02.424Z,20.40
2023-03-04T17:28:29.373Z,20.40
2023-03-04T17:30:56.047Z,20.40
2023-03-04T17:33:23.223Z,20.40
2023-03-04T17:35:49.986Z,20.30
2023-03-04T17:38:16.969Z,20.30
2023-03-04T17:40:43.999Z,20.30
2023-03-04T17:43:13.910Z,19.20
2023-03-04T17:45:42.123Z,20.30
2023-03-04T17:48:17.121Z,20.30
2023-03-04T17:50:51.411Z,20.30
2023-03-04T17:53:18.627Z,20.30
2023-03-04T17:55:52.546Z,20.30
2023-03-04T17:58:19.631Z,20.20
2023-03-04T18:00:46.859Z,20.20
2023-03-04T18:03:14.714Z,20.30
2023-03-04T18:05:41.407Z,20.20
2023-03-04T18:08:08.000Z,20.20
2023-03-04T18:10:34.951Z,20.20
2023-03-04T18:13:01.654Z,20.20
2023-03-04T18:15:28.295Z,20.20
2023-03-04T18:17:54.931Z,20.20
2023-03-04T18:20:21.641Z,20.20
2023-03-04T18:22:48.336Z,20.20
2023-03-04T18:25:14.983Z,20.20
2023-03-04T18:27:42.513Z,20.20
2023-03-04T18:30:13.419Z,20.20
2023-03-04T18:32:51.308Z,20.30
2023-03-04T18:35:19.586Z,20.30
2023-03-04T18:37:46.530Z,20.30
2023-03-04T18:40:13.878Z,20.30
2023-03-04T18:42:40.518Z,20.30
2023-03-04T18:45:07.895Z,20.40
2023-03-04T18:47:34.563Z,20.40
2023-03-04T18:50:01.288Z,20.30
2023-03-04T18:52:28.547Z,20.40
2023-03-04T18:54:55.176Z,20.40
2023-03-04T18:57:21.909Z,20.30
2023-03-04T19:00:03.756Z,20.40
2023-03-04T19:02:40.247Z,20.40
2023-03-04T19:05:11.254Z,20.40
2023-03-04T19:07:38.158Z,20.40
2023-03-04T19:10:05.394Z,20.40
2023-03-04T19:12:33.861Z,20.40
2023-03-04T19:15:01.231Z,20.40
2023-03-04T19:17:31.795Z,20.40
2023-03-04T19:20:02.462Z,20.40
2023-03-04T19:22:29.434Z,20.40
2023-03-04T19:24:56.096Z,20.40
2023-03-04T19:27:22.921Z,20.40
2023-03-04T19:29:49.848Z,20.40
2023-03-04T19:32:19.738Z,20.40
2023-03-04T19:34:47.178Z,20.40
2023-03-04T19:37:15.454Z,20.40
2023-03-04T19:39:43.464Z,20.40
2023-03-04T19:42:11.412Z,20.40
2023-03-04T19:44:38.894Z,20.40
2023-03-04T19:47:05.681Z,20.40
2023-03-04T19:49:32.789Z,20.40
2023-03-04T19:52:00.440Z,20.40
2023-03-04T19:54:30.647Z,20.40
2023-03-04T19:56:58.490Z,20.40
2023-03-04T19:59:25.381Z,20.40
2023-03-04T20:01:52.081Z,20.40
2023-03-04T20:04:21.339Z,20.40
2023-03-04T20:06:50.391Z,20.40
2023-03-04T20:09:18.265Z,20.40
2023-03-04T20:11:57.218Z,20.30
2023-03-04T20:14:25.018Z,20.10
2023-03-04T20:16:51.690Z,20.00
2023-03-04T20:19:18.290Z,19.90
2023-03-04T20:21:44.978Z,19.90
2023-03-04T20:24:11.785Z,19.90
2023-03-04T20:26:39.396Z,19.80
2023-03-04T20:29:06.064Z,19.80
2023-03-04T20:31:35.992Z,19.80
2023-03-04T20:34:02.733Z,19.80
2023-03-04T20:36:30.362Z,19.80
2023-03-04T20:39:02.550Z,19.90
2023-03-04T20:41:30.752Z,19.80
2023-03-04T20:43:57.428Z,19.80
2023-03-04T20:46:39.747Z,19.80
2023-03-04T20:49:10.261Z,19.80
2023-03-04T20:51:37.388Z,19.70
2023-03-04T20:54:05.250Z,19.70
2023-03-04T20:56:32.783Z,19.70
2023-03-04T20:59:03.407Z,19.70
2023-03-04T21:01:31.125Z,19.70
2023-03-04T21:03:59.069Z,19.70
2023-03-04T21:06:28.202Z,19.70
2023-03-04T21:08:56.150Z,19.70
2023-03-04T21:11:26.002Z,19.60
2023-03-04T21:13:57.467Z,19.70
2023-03-04T21:16:29.935Z,19.60
2023-03-04T21:18:56.702Z,19.60
2023-03-04T21:21:26.392Z,19.60
2023-03-04T21:23:55.320Z,19.60
2023-03-04T21:26:23.272Z,19.60
2023-03-04T21:28:53.097Z,19.60
2023-03-04T21:31:28.458Z,19.50
2023-03-04T21:33:58.474Z,19.60
2023-03-04T21:36:25.099Z,19.60
2023-03-04T21:38:53.011Z,19.60
2023-03-04T21:41:22.225Z,19.50
2023-03-04T21:43:49.658Z,19.50
2023-03-04T21:46:17.258Z,19.50
2023-03-04T21:48:44.776Z,19.50
2023-03-04T21:51:14.564Z,19.50
2023-03-04T21:53:43.165Z,19.50
2023-03-04T21:56:11.414Z,19.50
2023-03-04T21:58:41.908Z,19.50
2023-03-04T22:01:16.834Z,19.50
2023-03-04T22:03:43.558Z,19.50
2023-03-04T22:06:11.972Z,19.40
2023-03-04T22:08:39.594Z,19.40
2023-03-04T22:11:08.193Z,19.40
2023-03-04T22:13:35.095Z,19.40
2023-03-04T22:16:02.126Z,19.40
2023-03-04T22:18:28.866Z,19.40
2023-03-04T22:21:04.659Z,19.40
2023-03-04T22:23:31.765Z,19.40
2023-03-04T22:26:32.519Z,19.40
2023-03-04T22:29:00.947Z,19.40
2023-03-04T22:31:33.187Z,19.40
2023-03-04T22:34:03.090Z,19.40
2023-03-04T22:36:31.114Z,19.40
2023-03-04T22:38:58.168Z,19.40
2023-03-04T22:41:24.938Z,19.30
2023-03-04T22:43:51.875Z,19.40
2023-03-04T22:46:24.782Z,19.30
2023-03-04T22:48:53.760Z,19.30
2023-03-04T22:51:20.782Z,19.40
2023-03-04T22:53:48.426Z,19.40
2023-03-04T22:56:15.963Z,19.30
2023-03-04T22:58:44.606Z,19.30
2023-03-04T23:01:13.114Z,19.30
2023-03-04T23:03:41.583Z,19.30
2023-03-04T23:06:20.840Z,19.30
2023-03-04T23:08:49.358Z,19.30
2023-03-04T23:11:22.543Z,19.30
2023-03-04T23:13:50.430Z,19.30
2023-03-04T23:16:18.196Z,19.30
2023-03-04T23:18:47.173Z,19.30
2023-03-04T23:21:16.835Z,19.30
2023-03-04T23:23:43.711Z,19.20
2023-03-04T23:26:24.866Z,19.20
2023-03-04T23:28:51.789Z,19.20
2023-03-04T23:31:18.782Z,19.20
2023-03-04T23:33:47.730Z,19.20
2023-03-04T23:36:17.036Z,19.20
2023-03-04T23:38:46.084Z,19.20
2023-03-04T23:41:14.571Z,19.20
2023-03-04T23:43:41.269Z,19.20
2023-03-04T23:46:13.780Z,19.20
2023-03-04T23:48:45.401Z,19.20
2023-03-04T23:51:16.958Z,19.20
2023-03-04T23:53:43.956Z,19.20
2023-03-04T23:56:12.807Z,19.20
2023-03-04T23:58:39.439Z,19.20
